Aérodrome :
LOGIN :

S'inscrire | Disclaimer

   EN    FR    IT 

 










Légende :    VFR   VFR Marginal   IFR   IFR Intensif   IFR Très Intensif
Visi : 
Plafond : 
>= 8 km
>= 3000ft
5 à 8 km
1000 à 3000 ft
1500m à 5 km
500 à 1000 ft
800 à 1500m
200 à 500 ft
< 800m
< 200 ft
Symboles :   Orages  Brouillard  Fortes neiges  Fortes précipitations  Vent > 20 kt
SIGMETs :   Divers  Orages  Givrage  Turbulence  Onde Orograph.  Cendres Volcan.






- Altitude de l'aérodrome : 143 ft
- Code IATA : VDP


EKVD - Kolding Vamdrup

DERNIER METAR :
  • 211050Z 15009KT CAVOK 26/16 Q1008

METARs EXPIRÉS :
  • 210950Z 13009KT CAVOK 26/16 Q1007
  • 210850Z 12011KT CAVOK 24/16 Q1007
  • 210750Z 12010KT 090V150 CAVOK 23/15 Q1008
  • 210650Z 13007KT 090V160 CAVOK 21/14 Q1008
  • 210620Z AUTO 12006KT 050V170 //// ///////// 21/14 Q1008

TAF TAF EKVD
Valide du 21 à 09h jusqu'au 21 à 15h UTC


210859Z 2109/2115 13010KT CAVOK



MET'MAP, la Météo Aéronautique d'un coup d'oeil ! - Copyright ORBIFLY Décembre 2007 - Disclaimer

ORBIFLY MET'MAP TEAM :

Programmation & Développement : Alexandra Zaïnal
Sur une idée originale de : Baudouin d'Aumeries
Soutien technique & logistique : Manuel Goepfert
Assistance : Marc-Olivier Méhu




SOURCES & CREDITS :

   NOAA